Terrenceville, Canada
Current Conditions -  °F | °C
As of 1:00 AM on Saturday 25 Oct 2014 (Local Time) from CYQX Reporting Station
Light Rain Light Rain  
Wind Chill: 35°   Ceiling: 400
Heat Index: 43°   Visibility: 3mi
Dew Point: 43°   Wind: 18mph
Humidity: 100%   Direction: 40°NE
Pressure: 29.63"   Gusts: 25mph
Location:  47.68°N, 54.72°W
Report Text: CYQX 250300Z 04016G22KT 3SM -RA BR BKN004 OVC008 06/06 A2963 RMK SF7SF1 SLP037
Loading
Personal Weather Stations






























Interactive Weather Map New forecast layout! Learn more

10-Day Weather Forecast

Advertisements
Track Severe Weather on mobile